Latest Coastal Weather Observations for Willis Island

IDQ60701

Issued at 3:42 pm EST Friday 9 December 2016 (issued every 10 minutes, with the page automatically refreshed every 10 minutes)

About coastal observations | Map of coastal stations | Coastal observations for QLD | Marine services | Other Formats
Station Details ID: 200283 Name: WILLIS ISLAND Lat: -16.29 Lon: 149.97 Height: 9.29 m
Data from the previous 72 hours. | See also: Recent months at Willis Island
Date/Time
EST
Temp
°C
Wind Pressure Rain since
9am
mm
Weather Cloud Vis
km
Sea
Height
m
Swell
Dir  Spd
kts
Gust
kts
hPa Trend Height
m
Period
s
Dir
09/03:30pm 29.8 ESE 11 14 1008.4 - 0.0 - - - - - - -
09/03:00pm 29.9 E 12 14 1008.5 S 0.0 Fine Mostly clear 40 2 1.0 10 E
09/02:30pm 29.6 E 13 15 1008.5 - 0.0 - - - - - - -
09/02:00pm 29.8 E 14 16 1008.6 - 0.0 - - - - - - -
09/01:30pm 29.7 E 13 15 1009.0 - 0.0 - - - - - - -
09/01:00pm 29.3 E 12 14 1009.4 - 0.0 - - - - - - -
09/12:30pm 30.1 E 12 15 1009.5 - 0.0 - - - - - - -
09/12:00pm 30.4 ESE 11 13 1009.9 R 0.0 Fine Partly cloudy 40 1 1.0 11 E
09/11:30am 30.4 E 11 13 1010.3 - 0.0 - - - - - - -
09/11:00am 30.2 E 10 12 1010.4 - 0.0 - - - - - - -
09/10:30am 29.9 E 11 12 1010.7 - 0.0 - - - - - - -
09/10:00am 29.8 E 10 12 1010.8 - 0.0 - - - - - - -
09/09:30am 29.6 E 10 11 1010.8 - 0.0 - - - - - - -
09/09:00am 29.5 E 11 12 1010.8 F 0.6 Fine Mostly clear 40 1 1.0 11 E
09/08:30am 28.6 E 11 13 1010.8 - 0.6 - - - - - - -
09/08:00am 28.6 E 11 13 1010.9 - 0.6 - - - - - - -
09/07:30am 28.2 E 11 12 1010.9 - 0.6 - - - - - - -
09/07:00am 27.7 E 11 13 1010.7 - 0.6 - - - - - - -
09/06:30am 27.3 E 12 14 1010.5 - 0.6 - - - - - - -
09/06:00am 26.9 E 10 13 1010.3 R 0.6 - - - - - - -
09/05:30am 26.5 E 11 13 1010.0 - 0.6 - - - - - - -
09/05:00am 26.4 E 10 11 1009.6 - 0.6 - - - - - - -
09/04:30am 26.4 E 9 11 1009.3 - 0.6 - - - - - - -
09/04:00am 26.4 ENE 10 11 1009.2 - 0.6 - - - - - - -
09/03:30am 26.5 E 9 11 1009.1 - 0.6 - - - - - - -
09/03:00am 26.5 E 10 11 1008.9 R 0.6 - - - - - - -
09/02:30am 26.6 ENE 11 13 1008.6 - 0.6 - - - - - - -
09/02:00am 26.5 ENE 12 13 1008.5 - 0.6 - - - - - - -
09/01:30am 26.6 ENE 11 13 1008.7 - 0.6 - - - - - - -
09/01:00am 26.7 ENE 11 14 1008.9 - 0.6 - - - - - - -
09/12:30am 26.7 ENE 13 15 1009.1 - 0.6 - - - - - - -
09/12:00am 26.8 ENE 14 16 1009.5 F 0.6 - - - - - - -
 
Date/Time
EST
Temp
°C
Wind Pressure Rain since
9am
mm
Weather Cloud Vis
km
Sea
Height
m
Swell
Dir  Spd
kts
Gust
kts
hPa Trend Height
m
Period
s
Dir
08/11:30pm 26.9 ENE 14 16 1009.8 - 0.6 - - - - - - -
08/11:00pm 26.9 ENE 15 18 1010.1 - 0.6 - - - - - - -
08/10:30pm 27.0 ENE 14 17 1010.1 - 0.6 - - - - - - -
08/10:00pm 27.0 ENE 13 15 1010.2 - 0.6 - - - - - - -
08/09:30pm 27.0 ENE 14 16 1010.2 - 0.6 - - - - - - -
08/09:00pm 27.0 ENE 15 16 1010.2 F 0.6 - - - - - - -
08/08:30pm 27.1 ENE 15 17 1010.0 - 0.6 - - - - - - -
08/08:00pm 27.2 ENE 15 17 1009.9 - 0.6 - - - - - - -
08/07:30pm 27.2 ENE 15 17 1009.6 - 0.6 - - - - - - -
08/07:00pm 27.1 ENE 14 16 1009.5 - 0.6 - - - - - - -
08/06:30pm 26.4 E 11 16 1009.4 - 0.6 - - - - - - -
08/06:00pm 27.7 ESE 5 7 1009.2 R 0.0 Distant precip. Partly cloudy 25 <0.5 1.2 7 E
08/05:30pm 28.1 ESE 6 8 1008.9 - 0.0 - - - - - - -
08/05:00pm 28.6 ESE 8 9 1008.6 - 0.0 - - - - - - -
08/04:30pm 28.9 E 7 9 1008.4 - 0.0 - - - - - - -
08/04:00pm 29.1 ESE 8 10 1008.3 - 0.0 - - - - - - -
08/03:30pm 29.4 ESE 8 10 1008.2 - 0.0 - - - - - - -
08/03:00pm 28.9 ESE 9 12 1008.4 F 0.0 Fine Partly cloudy 30 1 1.0 7 E
08/02:30pm 30.3 ESE 8 9 1008.7 - 0.0 - - - - - - -
08/02:00pm 30.0 E 8 10 1008.8 - 0.0 - - - - - - -
08/01:30pm 30.7 ESE 9 11 1009.1 - 0.0 - - - - - - -
08/01:00pm 31.0 ESE 9 11 1009.5 - 0.0 - - - - - - -
08/12:30pm 30.6 ESE 11 13 1009.6 - 0.0 - - - - - - -
08/12:00pm 30.3 ESE 11 13 1010.0 R 0.0 Fine Partly cloudy 35 1 0.5 8 E
08/11:30am 30.1 ESE 11 13 1010.3 - 0.0 - - - - - - -
08/11:00am 30.5 ESE 12 15 1010.5 - 0.0 - - - - - - -
08/10:30am 30.3 ESE 13 15 1010.4 - 0.0 - - - - - - -
08/10:00am 30.0 ESE 11 14 1010.7 - 0.0 - - - - - - -
08/09:30am 29.7 ESE 11 12 1010.8 - 0.0 - - - - - - -
08/09:00am 28.8 E 11 12 1010.9 F 0.0 Fine Mostly clear 35 1 0.7 8 E
08/08:30am 28.7 ESE 12 14 1010.9 - 0.0 - - - - - - -
08/08:00am 28.2 ESE 13 16 1010.9 - 0.0 - - - - - - -
08/07:30am 28.2 SE 13 15 1010.9 - 0.0 - - - - - - -
08/07:00am 27.6 SE 12 14 1010.8 - 0.0 - - - - - - -
08/06:30am 27.0 SE 13 15 1010.7 - 0.0 - - - - - - -
08/06:00am 26.5 SE 14 16 1010.4 R 0.0 - - - - - - -
08/05:30am 26.2 ESE 14 16 1010.0 - 0.0 - - - - - - -
08/05:00am 26.2 ESE 13 14 1010.0 - 0.0 - - - - - - -
08/04:30am 26.2 ESE 14 15 1009.5 - 0.0 - - - - - - -
08/04:00am 26.3 E 14 16 1009.3 - 0.0 - - - - - - -
08/03:30am 26.2 E 15 16 1009.2 - 0.0 - - - - - - -
08/03:00am 26.2 E 16 18 1009.2 F 0.0 - - - - - - -
08/02:30am 26.3 E 15 17 1009.4 - 0.0 - - - - - - -
08/02:00am 26.3 E 15 17 1009.6 - 0.0 - - - - - - -
08/01:30am 26.5 E 16 18 1009.9 - 0.0 - - - - - - -
08/01:00am 26.5 E 16 18 1010.3 - 0.0 - - - - - - -
08/12:30am 26.7 E 16 18 1010.8 - 0.0 - - - - - - -
08/12:00am 26.7 E 17 19 1011.1 R 0.0 - - - - - - -
 
Date/Time
EST
Temp
°C
Wind Pressure Rain since
9am
mm
Weather Cloud Vis
km
Sea
Height
m
Swell
Dir  Spd
kts
Gust
kts
hPa Trend Height
m
Period
s
Dir
07/11:30pm 26.7 E 17 19 1011.5 - 0.0 - - - - - - -
07/11:00pm 26.8 E 17 19 1011.6 - 0.0 - - - - - - -
07/10:30pm 26.8 E 18 20 1011.6 - 0.0 - - - - - - -
07/10:00pm 26.8 E 18 20 1011.7 - 0.0 - - - - - - -
07/09:30pm 26.9 E 17 19 1011.6 - 0.0 - - - - - - -
07/09:00pm 26.9 E 16 19 1011.5 F 0.0 - - - - - - -
07/08:30pm 26.9 ESE 16 18 1011.6 - 0.0 - - - - - - -
07/08:00pm 27.0 ESE 15 17 1011.4 - 0.0 - - - - - - -
07/07:30pm 27.0 ESE 15 17 1011.3 - 0.0 - - - - - - -
07/07:00pm 27.1 ESE 15 17 1011.2 - 0.0 - - - - - - -
07/06:30pm 27.2 ESE 14 16 1011.0 - 0.0 - - - - - - -
07/06:00pm 27.5 ESE 14 16 1010.8 R 0.0 Fine Mostly clear 25 1 0.7 6 E
07/05:30pm 27.9 ESE 14 16 1010.6 - 0.0 - - - - - - -
07/05:00pm 28.4 ESE 15 16 1010.2 - 0.0 - - - - - - -
07/04:30pm 28.7 ESE 13 16 1009.9 - 0.0 - - - - - - -
07/04:00pm 29.2 ESE 14 15 1009.7 - 0.0 - - - - - - -
07/03:30pm 29.5 E 12 14 1009.7 - 0.0 - - - - - - -
07/03:00pm 29.1 E 12 13 1009.7 R 0.0 Distant precip. Partly cloudy 25 1 1.0 8 E
07/02:30pm 29.6 E 12 14 1010.0 - 0.0 - - - - - - -
07/02:00pm 30.1 E 12 14 1010.2 - 0.0 - - - - - - -
07/01:30pm 29.9 E 12 14 1010.3 - 0.0 - - - - - - -
07/01:00pm 29.9 ENE 13 15 1010.5 - 0.0 - - - - - - -
07/12:30pm 29.3 ENE 13 15 1010.7 - 0.0 - - - - - - -
07/12:00pm 29.6 ENE 14 16 1010.9 R 0.0 Distant precip. Partly cloudy 25 1 1.0 7 E
07/11:30am 29.3 ENE 15 16 1011.1 - 0.0 - - - - - - -
07/11:00am 29.7 ENE 15 16 1011.4 - 0.0 - - - - - - -
07/10:30am 29.1 ENE 14 15 1011.6 - 0.0 - - - - - - -
07/10:00am 29.3 E 13 15 1011.7 - 0.0 - - - - - - -
07/09:30am 29.2 E 12 14 1011.7 - 0.0 - - - - - - -
07/09:00am 28.9 E 11 13 1011.7 R 8.6 Distant precip. Partly cloudy 25 1 0.8 7 E
07/08:30am 28.8 E 12 14 1011.6 - 8.6 - - - - - - -
07/08:00am 27.8 ESE 11 13 1011.2 - 8.6 - - - - - - -
07/07:30am 27.7 ESE 13 16 1011.1 - 8.6 - - - - - - -
07/07:00am 27.5 ESE 13 15 1010.8 - 8.6 - - - - - - -
07/06:30am 27.0 ESE 13 15 1010.6 - 8.6 - - - - - - -
07/06:00am 26.4 ESE 13 15 1010.3 R 8.6 - - - - - - -
07/05:30am 26.3 ESE 14 17 1009.8 - 8.6 - - - - - - -
07/05:00am 26.2 E 13 15 1009.4 - 8.6 - - - - - - -
07/04:30am 26.2 ESE 15 18 1009.1 - 8.6 - - - - - - -
07/04:00am 26.1 ESE 14 15 1008.8 - 8.6 - - - - - - -
07/03:30am 26.1 ESE 15 17 1008.9 - 8.6 - - - - - - -
07/03:00am 25.4 ESE 16 20 1009.1 S 8.2 Recent precip. - - - - - -
07/02:30am 26.2 ESE 16 19 1009.1 - 8.2 - - - - - - -
07/02:00am 25.7 ESE 14 16 1009.3 - 7.8 - - - - - - -
07/01:30am 25.6 E 14 17 1009.5 - 7.8 - - - - - - -
07/01:00am 24.6 E 16 19 1009.8 - 7.8 - - - - - - -
07/12:30am 24.6 ENE 21 23 1010.2 - 7.6 - - - - - - -
07/12:07am 24.6 E 17 28 1010.3 - 7.0 - - - - - - -
07/12:05am 25.0 ESE 15 28 1010.4 - 6.6 - - - - - - -
07/12:00am 25.4 E 11 14 1010.4 S 6.4 Recent precip. - - - - - -
 
Date/Time
EST
Temp
°C
Wind Pressure Rain since
9am
mm
Weather Cloud Vis
km
Sea
Height
m
Swell
Dir  Spd
kts
Gust
kts
hPa Trend Height
m
Period
s
Dir
06/11:30pm 24.5 E 14 18 1010.7 - 6.4 - - - - - - -
06/11:00pm 24.9 E 19 25 1011.1 - 5.6 - - - - - - -
06/10:30pm 24.9 ENE 24 28 1011.0 - 1.6 - - - - - - -
06/10:21pm 25.5 ENE 17 28 1010.9 - 0.8 - - - - - - -
06/10:00pm 25.4 E 14 19 1011.1 - 0.8 - - - - - - -
06/09:42pm 24.9 ESE 18 28 1011.1 - 0.8 - - - - - - -
06/09:30pm 26.2 ESE 20 29 1011.0 - 0.0 - - - - - - -
06/09:00pm 26.6 ESE 16 19 1011.0 F 0.0 - - - - - - -
06/08:30pm 26.9 ESE 17 20 1011.0 - 0.0 - - - - - - -
06/08:00pm 26.8 SE 19 24 1010.8 - 0.0 - - - - - - -
06/07:30pm 26.7 SE 19 21 1010.6 - 0.0 - - - - - - -
06/07:00pm 26.6 SE 18 21 1010.6 - 0.0 - - - - - - -
06/06:30pm 26.7 SE 18 21 1010.3 - 0.0 - - - - - - -
06/06:00pm 26.9 SE 18 21 1010.6 F 0.0 Distant precip. Mostly cloudy 30 2 0.6 14 E
06/05:30pm 27.3 SE 19 22 1010.4 - 0.0 - - - - - - -
06/05:00pm 27.5 SE 17 19 1010.3 - 0.0 - - - - - - -
06/04:30pm 27.7 SE 19 22 1010.1 - 0.0 - - - - - - -
06/04:00pm 28.1 SE 15 19 1010.0 - 0.0 - - - - - - -

Other Formats:

Comma delimited format used in spreadsheet applications
http://www.bom.gov.au/fwo/IDQ60701/IDQ60701.94299.axf

JavaScript Object Notation format (JSON) in row-major order
http://www.bom.gov.au/fwo/IDQ60701/IDQ60701.94299.json